createdAt,value
2023-02-25T00:01:57.738Z,1.20
2023-02-25T00:04:32.523Z,1.57
2023-02-25T00:07:00.868Z,1.83
2023-02-25T00:09:31.138Z,1.30
2023-02-25T00:11:59.624Z,1.77
2023-02-25T00:14:27.993Z,1.77
2023-02-25T00:16:57.598Z,1.03
2023-02-25T00:19:27.046Z,1.43
2023-02-25T00:21:55.263Z,0.50
2023-02-25T00:24:23.393Z,1.53
2023-02-25T00:26:53.105Z,0.83
2023-02-25T00:29:22.338Z,0.63
2023-02-25T00:31:50.821Z,1.17
2023-02-25T00:34:19.060Z,1.00
2023-02-25T00:36:47.551Z,1.63
2023-02-25T00:39:16.020Z,2.47
2023-02-25T00:41:44.365Z,1.43
2023-02-25T00:44:14.167Z,1.27
2023-02-25T00:46:42.412Z,1.47
2023-02-25T00:49:12.063Z,1.33
2023-02-25T00:51:41.444Z,1.23
2023-02-25T00:54:09.611Z,1.30
2023-02-25T00:56:37.864Z,1.00
2023-02-25T00:59:06.063Z,2.93
2023-02-25T01:01:38.235Z,1.03
2023-02-25T01:04:07.392Z,1.07
2023-02-25T01:06:37.672Z,1.40
2023-02-25T01:09:07.970Z,0.73
2023-02-25T01:11:37.273Z,1.07
2023-02-25T01:14:09.007Z,1.97
2023-02-25T01:16:39.063Z,1.07
2023-02-25T01:19:09.192Z,0.30
2023-02-25T01:21:39.653Z,1.60
2023-02-25T01:24:10.096Z,0.80
2023-02-25T01:26:42.235Z,0.93
2023-02-25T01:29:12.478Z,0.67
2023-02-25T01:31:42.782Z,1.20
2023-02-25T01:34:13.973Z,1.33
2023-02-25T01:36:42.526Z,1.90
2023-02-25T01:39:11.119Z,1.57
2023-02-25T01:41:40.762Z,1.40
2023-02-25T01:44:12.997Z,1.40
2023-02-25T01:46:43.920Z,1.30
2023-02-25T01:49:16.216Z,1.23
2023-02-25T01:51:47.198Z,0.97
2023-02-25T01:54:16.855Z,1.30
2023-02-25T01:56:49.554Z,1.73
2023-02-25T01:59:21.718Z,1.33
2023-02-25T02:01:51.362Z,1.07
2023-02-25T02:04:22.917Z,1.40
2023-02-25T02:06:52.455Z,0.97
2023-02-25T02:09:22.942Z,1.13
2023-02-25T02:11:51.043Z,0.40
2023-02-25T02:14:23.141Z,0.43
2023-02-25T02:17:20.025Z,1.27
2023-02-25T02:20:14.258Z,0.83
2023-02-25T02:22:55.934Z,0.77
2023-02-25T02:25:54.491Z,1.27
2023-02-25T02:28:57.020Z,0.50
2023-02-25T02:31:40.170Z,0.70
2023-02-25T02:34:20.264Z,0.73
2023-02-25T02:37:00.960Z,0.83
2023-02-25T02:39:45.777Z,0.70
2023-02-25T02:42:22.845Z,0.57
2023-02-25T02:44:57.657Z,0.87
2023-02-25T02:47:32.405Z,1.37
2023-02-25T02:50:05.970Z,0.43
2023-02-25T02:52:39.164Z,0.70
2023-02-25T02:55:12.170Z,0.80
2023-02-25T02:57:43.559Z,0.60
2023-02-25T03:00:17.835Z,0.47
2023-02-25T03:02:52.837Z,0.70
2023-02-25T03:05:23.265Z,0.97
2023-02-25T03:07:59.082Z,1.20
2023-02-25T03:10:27.782Z,1.40
2023-02-25T03:12:56.581Z,0.70
2023-02-25T03:15:26.989Z,0.97
2023-02-25T03:18:00.616Z,1.83
2023-02-25T03:20:34.762Z,0.97
2023-02-25T03:23:08.994Z,0.60
2023-02-25T03:25:47.280Z,0.43
2023-02-25T03:28:27.353Z,1.00
2023-02-25T03:31:03.235Z,0.53
2023-02-25T03:33:37.664Z,0.30
2023-02-25T03:36:11.180Z,0.47
2023-02-25T03:38:44.952Z,0.87
2023-02-25T03:41:16.687Z,0.87
2023-02-25T03:43:50.635Z,0.60
2023-02-25T03:46:20.893Z,0.30
2023-02-25T03:48:52.010Z,0.20
2023-02-25T03:51:24.420Z,0.40
2023-02-25T03:53:52.573Z,0.17
2023-02-25T03:56:21.109Z,0.20
2023-02-25T03:58:49.488Z,0.50
2023-02-25T04:01:21.709Z,1.13
2023-02-25T04:03:51.240Z,0.57
2023-02-25T04:06:24.020Z,0.40
2023-02-25T04:08:52.418Z,0.53
2023-02-25T04:11:20.903Z,0.20
2023-02-25T04:13:49.002Z,0.30
2023-02-25T04:16:17.245Z,0.10
2023-02-25T04:18:45.381Z,0.00
2023-02-25T04:21:27.985Z,0.10
2023-02-25T04:23:56.227Z,0.10
2023-02-25T04:26:24.731Z,0.10
2023-02-25T04:28:53.176Z,0.17
2023-02-25T04:31:21.472Z,0.10
2023-02-25T04:33:50.660Z,0.07
2023-02-25T04:36:30.765Z,0.00
2023-02-25T04:39:01.629Z,0.00
2023-02-25T04:41:32.599Z,0.00
2023-02-25T04:44:04.056Z,0.10
2023-02-25T04:46:32.433Z,0.00
2023-02-25T04:49:00.917Z,0.00
2023-02-25T04:51:30.751Z,0.00
2023-02-25T04:53:59.147Z,0.03
2023-02-25T04:56:27.659Z,0.00
2023-02-25T04:58:55.794Z,0.00
2023-02-25T05:01:23.917Z,0.10
2023-02-25T05:03:56.942Z,0.03
2023-02-25T05:06:25.669Z,0.00
2023-02-25T05:08:57.443Z,0.00
2023-02-25T05:11:26.768Z,0.00
2023-02-25T05:13:56.113Z,0.00
2023-02-25T05:16:25.057Z,0.00
2023-02-25T05:18:54.127Z,0.00
2023-02-25T05:21:24.444Z,0.00
2023-02-25T05:23:55.013Z,0.00
2023-02-25T05:26:25.195Z,0.00
2023-02-25T05:28:54.221Z,0.20
2023-02-25T05:31:24.877Z,0.00
2023-02-25T05:33:53.631Z,0.00
2023-02-25T05:36:23.990Z,0.00
2023-02-25T05:38:56.896Z,0.00
2023-02-25T05:41:25.018Z,0.00
2023-02-25T05:43:53.196Z,0.00
2023-02-25T05:46:22.696Z,0.00
2023-02-25T05:48:51.009Z,0.00
2023-02-25T05:51:23.452Z,0.00
2023-02-25T05:53:52.143Z,0.00
2023-02-25T05:56:23.839Z,0.00
2023-02-25T05:58:52.489Z,0.00
2023-02-25T06:01:23.078Z,0.00
2023-02-25T06:03:52.896Z,0.00
2023-02-25T06:06:24.383Z,0.00
2023-02-25T06:08:53.136Z,0.00
2023-02-25T06:11:24.854Z,0.00
2023-02-25T06:13:54.187Z,0.00
2023-02-25T06:16:23.614Z,0.10
2023-02-25T06:18:52.370Z,0.00
2023-02-25T06:21:21.031Z,0.30
2023-02-25T06:23:50.613Z,0.00
2023-02-25T06:26:19.161Z,0.00
2023-02-25T06:28:49.140Z,0.00
2023-02-25T06:31:20.211Z,0.00
2023-02-25T06:33:48.772Z,0.00
2023-02-25T06:36:17.051Z,0.00
2023-02-25T06:38:46.260Z,0.00
2023-02-25T06:41:17.201Z,0.00
2023-02-25T06:43:46.526Z,0.00
2023-02-25T06:46:16.467Z,0.00
2023-02-25T06:48:44.719Z,0.00
2023-02-25T06:51:13.109Z,0.00
2023-02-25T06:53:42.704Z,0.00
2023-02-25T06:56:12.724Z,0.00
2023-02-25T06:58:41.399Z,0.00
2023-02-25T07:01:10.400Z,0.00
2023-02-25T07:03:40.167Z,0.00
2023-02-25T07:06:09.041Z,0.00
2023-02-25T07:08:37.286Z,0.00
2023-02-25T07:11:16.186Z,0.00
2023-02-25T07:13:44.845Z,0.10
2023-02-25T07:16:13.864Z,0.00
2023-02-25T07:18:43.974Z,0.00
2023-02-25T07:21:13.856Z,0.00
2023-02-25T07:23:42.597Z,0.00
2023-02-25T07:26:13.588Z,0.00
2023-02-25T07:28:42.382Z,0.00
2023-02-25T07:31:13.281Z,0.00
2023-02-25T07:33:42.479Z,0.00
2023-02-25T07:36:13.673Z,0.00
2023-02-25T07:38:42.065Z,0.03
2023-02-25T07:41:11.985Z,0.00
2023-02-25T07:43:40.305Z,0.00
2023-02-25T07:46:09.059Z,0.00
2023-02-25T07:48:37.517Z,0.00
2023-02-25T07:51:07.160Z,0.00
2023-02-25T07:53:37.234Z,0.00
2023-02-25T07:56:07.217Z,0.00
2023-02-25T07:58:36.128Z,0.00
2023-02-25T08:01:09.412Z,0.00
2023-02-25T08:03:38.498Z,0.00
2023-02-25T08:06:09.181Z,0.00
2023-02-25T08:08:39.194Z,0.10
2023-02-25T08:11:08.207Z,0.00
2023-02-25T08:13:36.789Z,0.93
2023-02-25T08:16:06.924Z,0.10
2023-02-25T08:18:35.346Z,0.10
2023-02-25T08:21:04.530Z,0.07
2023-02-25T08:23:32.803Z,0.40
2023-02-25T08:26:02.796Z,0.00
2023-02-25T08:28:34.333Z,0.00
2023-02-25T08:31:03.780Z,0.10
2023-02-25T08:33:32.241Z,0.00
2023-02-25T08:36:09.739Z,0.10
2023-02-25T08:38:38.574Z,0.10
2023-02-25T08:41:08.943Z,0.40
2023-02-25T08:43:37.751Z,0.10
2023-02-25T08:46:06.898Z,0.10
2023-02-25T08:48:35.579Z,0.17
2023-02-25T08:51:08.661Z,0.00
2023-02-25T08:53:38.968Z,0.03
2023-02-25T08:56:09.301Z,0.00
2023-02-25T08:58:38.060Z,0.10
2023-02-25T09:01:10.427Z,0.03
2023-02-25T09:03:38.577Z,0.13
2023-02-25T09:06:07.229Z,0.30
2023-02-25T09:08:35.381Z,0.10
2023-02-25T09:11:06.724Z,0.07
2023-02-25T09:13:36.378Z,0.10
2023-02-25T09:16:04.852Z,0.30
2023-02-25T09:18:33.096Z,0.10
2023-02-25T09:21:01.307Z,0.07
2023-02-25T09:23:29.603Z,0.20
2023-02-25T09:25:57.911Z,0.00
2023-02-25T09:28:26.090Z,0.10
2023-02-25T09:30:58.053Z,0.00
2023-02-25T09:33:30.709Z,0.00
2023-02-25T09:36:06.024Z,0.23
2023-02-25T09:38:34.390Z,0.10
2023-02-25T09:41:02.948Z,0.00
2023-02-25T09:43:37.862Z,0.20
2023-02-25T09:46:14.087Z,0.10
2023-02-25T09:48:51.828Z,0.03
2023-02-25T09:51:23.910Z,0.00
2023-02-25T09:53:58.404Z,0.00
2023-02-25T09:56:28.920Z,0.10
2023-02-25T09:58:59.858Z,0.30
2023-02-25T10:01:35.722Z,0.10
2023-02-25T10:04:10.796Z,0.00
2023-02-25T10:06:44.290Z,0.10
2023-02-25T10:09:22.954Z,0.00
2023-02-25T10:12:06.664Z,0.00
2023-02-25T10:14:49.933Z,0.10
2023-02-25T10:17:27.658Z,0.10
2023-02-25T10:20:18.535Z,0.10
2023-02-25T10:22:52.718Z,0.00
2023-02-25T10:25:24.596Z,0.00
2023-02-25T10:27:57.788Z,0.00
2023-02-25T10:30:31.517Z,0.00
2023-02-25T10:33:05.840Z,0.00
2023-02-25T10:35:36.099Z,0.10
2023-02-25T10:38:04.253Z,0.00
2023-02-25T10:40:32.530Z,0.03
2023-02-25T10:43:04.161Z,0.10
2023-02-25T10:45:33.549Z,0.00
2023-02-25T10:48:13.799Z,0.00
2023-02-25T10:50:46.318Z,0.00
2023-02-25T10:53:16.756Z,0.00
2023-02-25T10:55:52.036Z,0.00
2023-02-25T10:58:29.651Z,0.00
2023-02-25T11:01:01.734Z,0.00
2023-02-25T11:03:34.690Z,0.00
2023-02-25T11:06:12.932Z,0.00
2023-02-25T11:08:41.549Z,0.00
2023-02-25T11:11:17.404Z,0.00
2023-02-25T11:13:56.345Z,0.00
2023-02-25T11:16:24.705Z,0.00
2023-02-25T11:18:57.697Z,0.00
2023-02-25T11:21:35.024Z,0.00
2023-02-25T11:24:10.230Z,0.00
2023-02-25T11:26:39.520Z,0.00
2023-02-25T11:29:13.260Z,0.00
2023-02-25T11:31:43.382Z,0.00
2023-02-25T11:34:21.263Z,0.00
2023-02-25T11:36:51.155Z,0.00
2023-02-25T11:39:22.179Z,0.00
2023-02-25T11:41:51.995Z,0.00
2023-02-25T11:44:28.225Z,0.00
2023-02-25T11:47:08.494Z,0.00
2023-02-25T11:50:00.324Z,0.00
2023-02-25T11:52:39.598Z,0.00
2023-02-25T11:55:19.113Z,0.00
2023-02-25T11:57:56.764Z,0.00
2023-02-25T12:00:32.020Z,0.00
2023-02-25T12:03:16.994Z,0.00
2023-02-25T12:05:59.598Z,0.00
2023-02-25T12:08:43.918Z,0.00
2023-02-25T12:11:41.698Z,0.00
2023-02-25T12:14:33.722Z,0.33
2023-02-25T12:17:53.455Z,0.00
2023-02-25T12:20:59.792Z,0.00
2023-02-25T12:24:12.700Z,0.00
2023-02-25T12:27:01.175Z,0.00
2023-02-25T12:29:51.947Z,0.00
2023-02-25T12:32:53.838Z,0.00
2023-02-25T12:35:41.705Z,0.00
2023-02-25T12:38:42.627Z,0.10
2023-02-25T12:41:25.983Z,0.00
2023-02-25T12:44:01.293Z,0.00
2023-02-25T12:46:51.180Z,0.43
2023-02-25T12:49:49.127Z,0.00
2023-02-25T12:52:40.095Z,0.00
2023-02-25T12:55:37.909Z,0.00
2023-02-25T12:58:44.833Z,0.00
2023-02-25T13:02:15.861Z,0.00
2023-02-25T13:05:22.935Z,0.00
2023-02-25T13:08:32.623Z,0.00
2023-02-25T13:11:10.652Z,0.00
2023-02-25T13:13:57.600Z,0.00
2023-02-25T13:16:36.690Z,0.00
2023-02-25T13:19:43.369Z,0.00
2023-02-25T13:22:38.032Z,0.00
2023-02-25T13:25:15.716Z,0.00
2023-02-25T13:28:05.981Z,0.00
2023-02-25T13:30:44.745Z,0.00
2023-02-25T13:33:27.922Z,0.00
2023-02-25T13:36:10.106Z,0.00
2023-02-25T13:38:54.982Z,0.23
2023-02-25T13:41:43.051Z,0.07
2023-02-25T13:44:27.162Z,0.00
2023-02-25T13:47:11.333Z,0.00
2023-02-25T13:50:21.103Z,0.00
2023-02-25T13:53:16.015Z,0.00
2023-02-25T13:56:19.128Z,0.00
2023-02-25T13:59:03.292Z,0.00
2023-02-25T14:01:43.379Z,0.00
2023-02-25T14:04:51.935Z,0.00
2023-02-25T14:07:43.813Z,0.00
2023-02-25T14:10:25.726Z,0.00
2023-02-25T14:13:13.720Z,0.00
2023-02-25T14:15:52.904Z,0.00
2023-02-25T14:18:44.508Z,0.00
2023-02-25T14:21:46.244Z,0.00
2023-02-25T14:24:19.806Z,0.00
2023-02-25T14:27:01.237Z,0.00
2023-02-25T14:29:38.879Z,0.00
2023-02-25T14:32:39.624Z,0.00
2023-02-25T14:35:22.748Z,0.00
2023-02-25T14:38:03.126Z,0.00
2023-02-25T14:40:39.767Z,0.00
2023-02-25T14:43:28.176Z,0.00
2023-02-25T14:46:03.198Z,0.00
2023-02-25T14:48:40.257Z,0.00
2023-02-25T14:51:41.573Z,0.00
2023-02-25T14:54:51.395Z,0.00
2023-02-25T14:57:49.955Z,0.00
2023-02-25T15:00:43.860Z,0.00
2023-02-25T15:03:29.887Z,0.00
2023-02-25T15:06:23.600Z,0.00
2023-02-25T15:09:35.718Z,0.00
2023-02-25T15:12:17.838Z,0.00
2023-02-25T15:15:30.004Z,0.00
2023-02-25T15:18:39.857Z,0.00
2023-02-25T15:21:38.501Z,0.00
2023-02-25T15:24:11.675Z,0.00
2023-02-25T15:26:45.481Z,0.00
2023-02-25T15:29:58.316Z,0.00
2023-02-25T15:32:30.177Z,0.00
2023-02-25T15:35:01.962Z,0.00
2023-02-25T15:37:36.587Z,0.00
2023-02-25T15:40:49.606Z,0.00
2023-02-25T15:43:42.639Z,0.00
2023-02-25T15:46:43.202Z,0.13
2023-02-25T15:49:23.423Z,0.00
2023-02-25T15:51:55.414Z,0.00
2023-02-25T15:54:49.019Z,0.00
2023-02-25T15:57:36.845Z,0.10
2023-02-25T16:00:31.812Z,0.00
2023-02-25T16:03:03.634Z,0.00
2023-02-25T16:05:36.385Z,0.00
2023-02-25T16:08:18.528Z,0.00
2023-02-25T16:10:50.422Z,0.00
2023-02-25T16:13:24.265Z,0.00
2023-02-25T16:15:57.503Z,0.00
2023-02-25T16:18:33.493Z,0.00
2023-02-25T16:21:06.295Z,0.10
2023-02-25T16:23:41.523Z,0.00
2023-02-25T16:26:23.448Z,0.00
2023-02-25T16:29:01.117Z,0.00
2023-02-25T16:31:34.429Z,0.00
2023-02-25T16:34:11.397Z,0.00
2023-02-25T16:36:50.123Z,0.10
2023-02-25T16:39:23.753Z,0.00
2023-02-25T16:41:53.468Z,0.00
2023-02-25T16:44:24.580Z,0.00
2023-02-25T16:46:55.159Z,0.00
2023-02-25T16:49:29.975Z,0.00
2023-02-25T16:51:59.021Z,0.00
2023-02-25T16:54:33.891Z,0.00
2023-02-25T16:57:04.415Z,0.10
2023-02-25T16:59:35.265Z,0.00
2023-02-25T17:02:06.149Z,0.00
2023-02-25T17:04:36.500Z,0.00
2023-02-25T17:07:18.251Z,0.00
2023-02-25T17:09:50.104Z,0.00
2023-02-25T17:12:24.154Z,0.00
2023-02-25T17:14:54.206Z,0.00
2023-02-25T17:17:26.791Z,0.27
2023-02-25T17:19:56.845Z,0.00
2023-02-25T17:22:26.580Z,0.00
2023-02-25T17:24:58.876Z,0.00
2023-02-25T17:29:57.087Z,0.00
2023-02-25T17:32:28.257Z,0.00
2023-02-25T17:35:01.533Z,0.00
2023-02-25T17:37:32.685Z,0.00
2023-02-25T17:40:04.594Z,0.00
2023-02-25T17:42:35.625Z,0.00
2023-02-25T17:45:05.338Z,0.10
2023-02-25T17:47:35.625Z,0.00
2023-02-25T17:50:23.110Z,0.00
2023-02-25T17:52:51.764Z,0.00
2023-02-25T17:55:26.996Z,0.00
2023-02-25T17:57:59.855Z,0.00
2023-02-25T18:00:31.948Z,0.00
2023-02-25T18:03:18.232Z,0.00
2023-02-25T18:05:52.253Z,0.00
2023-02-25T18:08:22.681Z,0.00
2023-02-25T18:11:02.545Z,0.00
2023-02-25T18:13:35.694Z,0.00
2023-02-25T18:16:27.622Z,0.10
2023-02-25T18:18:57.530Z,0.00
2023-02-25T18:21:25.836Z,0.00
2023-02-25T18:23:54.417Z,0.00
2023-02-25T18:26:26.081Z,0.00
2023-02-25T18:28:57.532Z,0.00
2023-02-25T18:31:25.824Z,0.00
2023-02-25T18:33:55.167Z,0.00
2023-02-25T18:36:25.844Z,0.00
2023-02-25T18:38:56.801Z,0.00
2023-02-25T18:41:26.336Z,0.00
2023-02-25T18:43:54.788Z,0.00
2023-02-25T18:46:23.609Z,0.00
2023-02-25T18:48:51.875Z,0.07
2023-02-25T18:51:20.165Z,0.00
2023-02-25T18:53:48.445Z,0.00
2023-02-25T18:56:18.530Z,0.00
2023-02-25T18:58:48.160Z,0.10
2023-02-25T19:01:23.684Z,0.00
2023-02-25T19:03:52.310Z,0.00
2023-02-25T19:06:20.463Z,0.00
2023-02-25T19:08:48.565Z,0.00
2023-02-25T19:11:21.043Z,0.00
2023-02-25T19:13:50.654Z,0.00
2023-02-25T19:16:19.347Z,0.00
2023-02-25T19:18:48.414Z,0.00
2023-02-25T19:21:18.945Z,0.00
2023-02-25T19:23:49.452Z,0.00
2023-02-25T19:26:18.826Z,0.00
2023-02-25T19:28:47.017Z,0.00
2023-02-25T19:31:18.020Z,0.00
2023-02-25T19:33:46.212Z,0.00
2023-02-25T19:36:14.447Z,0.10
2023-02-25T19:38:42.639Z,0.00
2023-02-25T19:41:13.369Z,0.00
2023-02-25T19:43:41.568Z,0.00
2023-02-25T19:46:10.377Z,0.00
2023-02-25T19:48:39.915Z,0.00
2023-02-25T19:51:08.754Z,0.13
2023-02-25T19:53:37.572Z,0.00
2023-02-25T19:56:08.021Z,0.00
2023-02-25T19:58:36.221Z,0.00
2023-02-25T20:01:06.997Z,0.00
2023-02-25T20:03:35.892Z,0.00
2023-02-25T20:06:13.199Z,0.20
2023-02-25T20:08:41.633Z,0.00
2023-02-25T20:11:10.703Z,0.00
2023-02-25T20:13:39.125Z,0.00
2023-02-25T20:16:09.344Z,0.00
2023-02-25T20:18:37.725Z,0.10
2023-02-25T20:21:06.624Z,0.00
2023-02-25T20:23:38.343Z,0.00
2023-02-25T20:26:09.199Z,0.00
2023-02-25T20:28:37.964Z,0.00
2023-02-25T20:31:07.333Z,0.00
2023-02-25T20:33:36.203Z,0.20
2023-02-25T20:36:16.412Z,0.00
2023-02-25T20:38:57.780Z,0.00
2023-02-25T20:41:26.266Z,0.00
2023-02-25T20:43:54.715Z,1.00
2023-02-25T20:46:26.434Z,0.00
2023-02-25T20:48:55.404Z,0.00
2023-02-25T20:51:24.154Z,0.30
2023-02-25T20:53:54.408Z,0.00
2023-02-25T20:56:24.676Z,0.00
2023-02-25T20:58:54.926Z,0.00
2023-02-25T21:01:23.465Z,0.00
2023-02-25T21:03:51.656Z,0.30
2023-02-25T21:06:22.670Z,0.00
2023-02-25T21:08:51.812Z,0.00
2023-02-25T21:11:21.712Z,0.00
2023-02-25T21:13:49.839Z,0.00
2023-02-25T21:16:18.520Z,0.00
2023-02-25T21:18:47.240Z,0.00
2023-02-25T21:21:17.889Z,0.10
2023-02-25T21:23:46.060Z,0.00
2023-02-25T21:26:14.804Z,0.00
2023-02-25T21:28:46.014Z,0.00
2023-02-25T21:31:16.092Z,0.00
2023-02-25T21:33:44.568Z,0.00
2023-02-25T21:36:12.985Z,0.00
2023-02-25T21:38:41.240Z,0.00
2023-02-25T21:41:11.537Z,0.10
2023-02-25T21:43:40.023Z,0.00
2023-02-25T21:46:12.162Z,0.00
2023-02-25T21:48:41.035Z,0.30
2023-02-25T21:51:15.763Z,0.00
2023-02-25T21:53:43.996Z,0.00
2023-02-25T21:56:14.951Z,0.00
2023-02-25T21:58:43.300Z,0.00
2023-02-25T22:01:14.812Z,0.10
2023-02-25T22:03:43.103Z,0.00
2023-02-25T22:06:11.900Z,0.10
2023-02-25T22:08:41.121Z,0.00
2023-02-25T22:11:12.703Z,0.00
2023-02-25T22:13:40.841Z,0.10
2023-02-25T22:16:09.067Z,0.17
2023-02-25T22:18:38.803Z,0.00
2023-02-25T22:21:09.861Z,0.00
2023-02-25T22:23:38.013Z,0.00
2023-02-25T22:26:08.788Z,0.03
2023-02-25T22:28:38.138Z,0.00
2023-02-25T22:31:07.377Z,0.30
2023-02-25T22:33:35.586Z,0.00
2023-02-25T22:36:06.883Z,0.00
2023-02-25T22:38:37.500Z,0.00
2023-02-25T22:41:07.043Z,0.00
2023-02-25T22:43:35.265Z,0.00
2023-02-25T22:46:08.190Z,0.00
2023-02-25T22:48:36.744Z,0.10
2023-02-25T22:51:07.071Z,0.00
2023-02-25T22:53:35.217Z,0.07
2023-02-25T22:56:03.941Z,0.00
2023-02-25T22:58:32.487Z,0.00
2023-02-25T23:01:00.940Z,0.00
2023-02-25T23:03:29.266Z,0.00
2023-02-25T23:05:57.425Z,0.00
2023-02-25T23:08:27.071Z,0.00
2023-02-25T23:10:55.223Z,0.00
2023-02-25T23:13:23.535Z,0.20
2023-02-25T23:15:51.812Z,0.00
2023-02-25T23:18:20.172Z,0.00
2023-02-25T23:20:53.662Z,0.00
2023-02-25T23:23:22.027Z,0.00
2023-02-25T23:25:54.656Z,0.00
2023-02-25T23:28:22.897Z,0.00
2023-02-25T23:30:51.349Z,0.00
2023-02-25T23:33:19.623Z,0.00
2023-02-25T23:35:49.674Z,0.00
2023-02-25T23:38:18.053Z,0.00
2023-02-25T23:40:46.357Z,0.00
2023-02-25T23:43:16.153Z,0.00
2023-02-25T23:45:46.906Z,0.10
2023-02-25T23:48:15.671Z,0.00
2023-02-25T23:50:44.072Z,0.20
2023-02-25T23:53:12.273Z,0.00
2023-02-25T23:55:40.580Z,0.00
2023-02-25T23:58:08.680Z,0.00
